createdAt,value
2023-06-23T00:00:46.321Z,75.02
2023-06-23T00:03:14.280Z,74.40
2023-06-23T00:05:41.762Z,74.76
2023-06-23T00:08:08.905Z,74.56
2023-06-23T00:10:36.035Z,74.93
2023-06-23T00:13:04.026Z,74.96
2023-06-23T00:15:31.606Z,74.78
2023-06-23T00:18:01.783Z,74.88
2023-06-23T00:20:29.095Z,75.03
2023-06-23T00:22:56.670Z,75.20
2023-06-23T00:25:24.499Z,75.03
2023-06-23T00:27:51.699Z,75.32
2023-06-23T00:30:21.514Z,75.65
2023-06-23T00:32:49.246Z,75.53
2023-06-23T00:35:16.477Z,75.72
2023-06-23T00:37:44.729Z,75.52
2023-06-23T00:40:12.268Z,75.96
2023-06-23T00:42:54.158Z,76.03
2023-06-23T00:45:22.361Z,76.02
2023-06-23T00:47:50.309Z,75.90
2023-06-23T00:50:21.600Z,76.01
2023-06-23T00:52:53.088Z,75.84
2023-06-23T00:55:27.976Z,76.00
2023-06-23T00:57:57.441Z,75.75
2023-06-23T01:00:29.233Z,75.91
2023-06-23T01:03:03.225Z,76.15
2023-06-23T01:05:37.543Z,76.61
2023-06-23T01:08:29.188Z,76.53
2023-06-23T01:11:10.090Z,76.41
2023-06-23T01:13:50.221Z,76.44
2023-06-23T01:16:19.188Z,76.90
2023-06-23T01:19:00.322Z,76.56
2023-06-23T01:21:40.251Z,77.00
2023-06-23T01:24:30.534Z,76.65
2023-06-23T01:27:28.017Z,77.07
2023-06-23T01:29:56.826Z,76.98
2023-06-23T01:32:33.260Z,77.18
2023-06-23T01:35:13.445Z,77.36
2023-06-23T01:37:43.690Z,77.29
2023-06-23T01:40:15.145Z,77.57
2023-06-23T01:42:47.870Z,77.22
2023-06-23T01:45:16.063Z,77.88
2023-06-23T01:47:50.391Z,77.87
2023-06-23T01:50:22.536Z,77.74
2023-06-23T01:52:51.239Z,77.58
2023-06-23T01:55:19.467Z,78.01
2023-06-23T01:57:48.020Z,77.83
2023-06-23T02:00:19.355Z,77.96
2023-06-23T02:02:49.412Z,78.10
2023-06-23T02:05:19.191Z,78.30
2023-06-23T02:07:49.184Z,78.40
2023-06-23T02:10:18.010Z,78.33
2023-06-23T02:12:45.973Z,78.52
2023-06-23T02:15:16.166Z,78.07
2023-06-23T02:17:45.337Z,78.68
2023-06-23T02:20:18.062Z,78.16
2023-06-23T02:22:50.751Z,78.13
2023-06-23T02:25:21.894Z,78.25
2023-06-23T02:27:49.817Z,78.34
2023-06-23T02:30:19.162Z,78.35
2023-06-23T02:32:49.812Z,78.20
2023-06-23T02:35:17.432Z,78.30
2023-06-23T02:37:54.440Z,78.12
2023-06-23T02:40:27.028Z,77.93
2023-06-23T02:43:17.732Z,77.91
2023-06-23T02:45:49.738Z,77.55
2023-06-23T02:48:32.162Z,77.87
2023-06-23T02:51:01.121Z,77.75
2023-06-23T02:53:36.581Z,77.86
2023-06-23T02:56:08.853Z,77.47
2023-06-23T02:58:36.762Z,77.15
2023-06-23T03:01:04.392Z,77.69
2023-06-23T03:03:35.032Z,77.55
2023-06-23T03:06:02.487Z,77.39
2023-06-23T03:08:30.060Z,77.99
2023-06-23T03:10:57.324Z,77.83
2023-06-23T03:13:24.533Z,77.95
2023-06-23T03:15:56.170Z,77.61
2023-06-23T03:18:26.444Z,77.80
2023-06-23T03:20:54.271Z,78.25
2023-06-23T03:23:22.845Z,78.02
2023-06-23T03:25:49.974Z,77.88
2023-06-23T03:28:26.690Z,77.70
2023-06-23T03:31:09.119Z,77.78
2023-06-23T03:33:41.868Z,77.97
2023-06-23T03:36:20.929Z,77.78
2023-06-23T03:39:05.255Z,77.83
2023-06-23T03:41:33.129Z,77.92
2023-06-23T03:44:19.088Z,77.75
2023-06-23T04:18:40.718Z,78.67
2023-06-23T04:21:08.803Z,78.52
2023-06-23T04:23:36.909Z,78.32
2023-06-23T04:26:07.104Z,78.85
2023-06-23T04:28:35.537Z,78.80
2023-06-23T04:31:08.852Z,78.43
2023-06-23T04:33:36.981Z,77.88
2023-06-23T04:36:16.019Z,77.67
2023-06-23T04:38:54.168Z,77.98
2023-06-23T04:41:23.774Z,77.86
2023-06-23T04:43:54.473Z,77.50
2023-06-23T04:49:19.470Z,76.99
2023-06-23T04:51:50.038Z,77.22
2023-06-23T04:54:30.510Z,77.01
2023-06-23T04:57:03.152Z,77.05
2023-06-23T04:59:36.027Z,77.25
2023-06-23T05:02:04.521Z,77.09
2023-06-23T05:04:33.867Z,77.38
2023-06-23T05:07:03.246Z,77.20
2023-06-23T05:09:31.395Z,77.11
2023-06-23T05:11:59.166Z,77.71
2023-06-23T05:14:27.408Z,77.37
2023-06-23T05:16:57.853Z,77.77
2023-06-23T05:19:26.768Z,77.43
2023-06-23T05:21:55.811Z,77.79
2023-06-23T05:24:23.653Z,77.85
2023-06-23T05:26:51.097Z,78.03
2023-06-23T05:29:19.163Z,77.49
2023-06-23T05:31:46.591Z,77.49
2023-06-23T05:34:16.240Z,77.59
2023-06-23T05:36:43.555Z,77.14
2023-06-23T05:39:12.563Z,77.12
2023-06-23T05:41:39.840Z,77.36
2023-06-23T05:44:06.986Z,77.28
2023-06-23T05:46:34.629Z,77.02
2023-06-23T05:49:15.264Z,77.53
2023-06-23T05:51:43.263Z,77.09
2023-06-23T05:54:12.760Z,77.18
2023-06-23T05:56:52.286Z,77.65
2023-06-23T05:59:40.916Z,77.75
2023-06-23T06:02:12.111Z,77.73
2023-06-23T06:04:43.778Z,77.58
2023-06-23T06:07:11.683Z,77.72
2023-06-23T06:09:39.322Z,76.89
2023-06-23T06:12:07.113Z,76.74
2023-06-23T06:14:34.466Z,76.77
2023-06-23T06:17:02.132Z,76.66
2023-06-23T06:19:30.059Z,76.30
2023-06-23T06:21:58.306Z,76.21
2023-06-23T06:24:26.265Z,75.41
2023-06-23T06:26:57.891Z,74.91
2023-06-23T06:29:25.507Z,74.55
2023-06-23T06:31:53.097Z,74.67
2023-06-23T06:34:21.545Z,74.18
2023-06-23T06:36:49.274Z,74.48
2023-06-23T06:39:17.337Z,73.97
2023-06-23T06:41:46.413Z,73.67
2023-06-23T06:44:14.219Z,73.63
2023-06-23T06:46:43.602Z,73.24
2023-06-23T06:49:12.358Z,73.27
2023-06-23T06:51:41.987Z,73.01
2023-06-23T06:54:09.199Z,72.63
2023-06-23T06:56:36.988Z,72.90
2023-06-23T06:59:04.701Z,72.94
2023-06-23T07:01:32.187Z,72.91
2023-06-23T07:03:59.678Z,72.32
2023-06-23T07:06:27.895Z,71.98
2023-06-23T07:08:55.044Z,71.60
2023-06-23T07:11:22.546Z,71.34
2023-06-23T07:13:49.713Z,70.98
2023-06-23T07:16:16.857Z,71.06
2023-06-23T07:18:43.976Z,70.96
2023-06-23T07:21:11.951Z,70.46
2023-06-23T07:23:39.529Z,69.74
2023-06-23T07:26:06.833Z,69.25
2023-06-23T07:28:33.972Z,69.44
2023-06-23T07:31:01.285Z,69.48
2023-06-23T07:33:28.621Z,69.44
2023-06-23T07:35:55.791Z,69.80
2023-06-23T07:38:22.973Z,69.89
2023-06-23T07:40:50.184Z,69.82
2023-06-23T07:43:17.382Z,69.77
2023-06-23T07:45:44.555Z,69.65
2023-06-23T07:48:11.884Z,69.46
2023-06-23T07:50:39.270Z,69.71
2023-06-23T07:53:06.395Z,69.65
2023-06-23T07:55:33.551Z,69.72
2023-06-23T07:58:00.731Z,69.23
2023-06-23T08:00:29.690Z,69.30
2023-06-23T08:02:57.166Z,69.20
2023-06-23T08:05:25.130Z,68.53
2023-06-23T08:07:52.536Z,68.02
2023-06-23T08:10:19.756Z,67.70
2023-06-23T08:12:46.974Z,67.02
2023-06-23T08:15:14.281Z,66.67
2023-06-23T08:17:42.247Z,67.03
2023-06-23T08:20:10.462Z,67.06
2023-06-23T08:22:41.031Z,67.46
2023-06-23T08:25:09.441Z,67.48
2023-06-23T08:27:36.673Z,67.23
2023-06-23T08:30:04.804Z,67.12
2023-06-23T08:32:32.043Z,67.06
2023-06-23T08:34:59.656Z,67.41
2023-06-23T08:37:26.837Z,67.59
2023-06-23T08:39:54.039Z,67.60
2023-06-23T08:42:22.245Z,67.22
2023-06-23T08:44:49.739Z,67.79
2023-06-23T08:47:20.841Z,67.35
2023-06-23T08:49:50.637Z,67.56
2023-06-23T08:52:18.877Z,67.66
2023-06-23T08:54:46.067Z,67.45
2023-06-23T08:57:14.288Z,67.37
2023-06-23T08:59:42.154Z,66.91
2023-06-23T09:02:09.644Z,67.85
2023-06-23T09:04:37.106Z,67.30
2023-06-23T09:07:04.424Z,67.43
2023-06-23T09:09:35.007Z,67.23
2023-06-23T09:12:02.621Z,66.80
2023-06-23T09:14:31.945Z,67.40
2023-06-23T09:16:59.970Z,67.45
2023-06-23T09:19:34.197Z,66.51
2023-06-23T09:22:02.437Z,66.83
2023-06-23T09:24:45.209Z,66.80
2023-06-23T09:27:12.785Z,66.08
2023-06-23T09:29:39.975Z,66.02
2023-06-23T09:32:10.494Z,65.75
2023-06-23T09:34:40.174Z,66.40
2023-06-23T09:37:15.860Z,65.78
2023-06-23T09:39:49.689Z,66.03
2023-06-23T09:42:17.373Z,65.69
2023-06-23T09:44:46.955Z,65.58
2023-06-23T09:47:19.992Z,65.67
2023-06-23T09:49:49.961Z,65.54
2023-06-23T09:52:26.591Z,65.17
2023-06-23T09:54:53.721Z,64.48
2023-06-23T09:57:21.922Z,64.24
2023-06-23T09:59:53.900Z,63.04
2023-06-23T10:02:27.213Z,62.26
2023-06-23T10:05:06.733Z,62.79
2023-06-23T10:07:34.984Z,62.52
2023-06-23T10:12:41.701Z,62.61
2023-06-23T10:15:10.333Z,62.72
2023-06-23T10:17:37.858Z,63.17
2023-06-23T10:20:06.779Z,62.98
2023-06-23T10:22:35.834Z,62.08
2023-06-23T10:25:03.117Z,61.47
2023-06-23T10:27:31.229Z,61.42
2023-06-23T10:30:01.765Z,61.97
2023-06-23T10:32:36.273Z,61.54
2023-06-23T10:35:11.014Z,62.26
2023-06-23T10:37:46.197Z,61.65
2023-06-23T10:40:20.160Z,60.68
2023-06-23T10:42:50.974Z,60.84
2023-06-23T10:45:18.733Z,61.20
2023-06-23T10:47:46.608Z,60.88
2023-06-23T10:50:14.631Z,60.46
2023-06-23T10:52:43.706Z,60.10
2023-06-23T10:55:51.296Z,60.06
2023-06-23T10:58:20.078Z,58.92
2023-06-23T11:01:01.539Z,58.85
2023-06-23T11:03:39.829Z,58.22
2023-06-23T11:06:13.098Z,59.05
2023-06-23T11:08:43.296Z,57.57
2023-06-23T11:11:12.745Z,56.89
2023-06-23T11:13:50.073Z,56.82
2023-06-23T11:16:18.807Z,57.21
2023-06-23T11:19:01.761Z,57.13
2023-06-23T11:21:35.699Z,56.74
2023-06-23T11:24:22.312Z,56.35
2023-06-23T11:26:54.146Z,54.93
2023-06-23T11:29:25.728Z,54.19
2023-06-23T11:32:17.309Z,54.01
2023-06-23T11:34:59.031Z,54.58
2023-06-23T11:37:32.886Z,53.22
2023-06-23T11:40:01.191Z,53.27
2023-06-23T11:42:28.884Z,54.19
2023-06-23T11:44:57.258Z,54.03
2023-06-23T11:47:26.738Z,52.71
2023-06-23T11:49:55.505Z,52.89
2023-06-23T11:52:23.216Z,52.71
2023-06-23T11:54:52.591Z,51.97
2023-06-23T11:57:23.362Z,50.55
2023-06-23T11:59:54.131Z,50.38
2023-06-23T12:02:22.138Z,50.52
2023-06-23T12:04:50.997Z,50.25
2023-06-23T12:07:18.348Z,49.92
2023-06-23T12:09:45.596Z,49.64
2023-06-23T12:12:16.327Z,48.77
2023-06-23T12:14:45.347Z,48.70
2023-06-23T12:17:14.056Z,48.68
2023-06-23T12:19:44.200Z,48.75
2023-06-23T12:22:19.915Z,48.20
2023-06-23T12:24:47.703Z,48.25
2023-06-23T12:27:15.325Z,47.01
2023-06-23T12:29:42.620Z,46.81
2023-06-23T12:32:10.803Z,46.66
2023-06-23T12:34:43.945Z,45.79
2023-06-23T12:37:17.411Z,45.45
2023-06-23T12:39:55.980Z,45.09
2023-06-23T12:42:24.163Z,45.63
2023-06-23T12:44:52.321Z,45.71
2023-06-23T12:47:20.661Z,45.29
2023-06-23T12:49:49.322Z,45.72
2023-06-23T12:52:16.778Z,45.60
2023-06-23T12:54:44.771Z,45.59
2023-06-23T12:57:12.231Z,45.78
2023-06-23T12:59:39.560Z,45.93
2023-06-23T13:02:07.737Z,45.88
2023-06-23T13:04:34.949Z,45.71
2023-06-23T13:07:02.189Z,45.47
2023-06-23T13:09:29.319Z,44.77
2023-06-23T13:11:56.543Z,44.87
2023-06-23T13:14:24.620Z,44.58
2023-06-23T13:16:52.180Z,44.86
2023-06-23T13:19:19.356Z,44.85
2023-06-23T13:21:48.521Z,45.12
2023-06-23T13:24:15.754Z,44.84
2023-06-23T13:26:48.632Z,44.55
2023-06-23T13:29:17.351Z,44.56
2023-06-23T13:31:46.785Z,44.40
2023-06-23T13:34:14.152Z,44.54
2023-06-23T13:36:41.323Z,44.81
2023-06-23T13:39:09.096Z,45.43
2023-06-23T13:41:36.234Z,45.37
2023-06-23T13:44:03.420Z,44.66
2023-06-23T13:46:30.590Z,45.51
2023-06-23T13:48:58.027Z,45.43
2023-06-23T13:51:25.289Z,45.52
2023-06-23T13:53:52.581Z,45.71
2023-06-23T13:56:19.706Z,45.80
2023-06-23T13:58:46.918Z,45.79
2023-06-23T14:01:14.109Z,46.10
2023-06-23T14:03:41.431Z,46.29
2023-06-23T14:06:11.526Z,45.93
2023-06-23T14:08:42.511Z,45.93
2023-06-23T14:11:09.691Z,46.22
2023-06-23T14:13:36.824Z,45.86
2023-06-23T14:16:04.977Z,46.05
2023-06-23T14:18:32.310Z,45.82
2023-06-23T14:20:59.716Z,46.35
2023-06-23T14:23:26.924Z,46.36
2023-06-23T14:25:55.210Z,46.55
2023-06-23T14:28:22.574Z,46.45
2023-06-23T14:30:49.887Z,46.52
2023-06-23T14:33:18.208Z,46.75
2023-06-23T14:35:45.830Z,47.21
2023-06-23T14:38:13.019Z,47.33
2023-06-23T14:40:41.552Z,47.47
2023-06-23T14:43:09.050Z,47.91
2023-06-23T14:45:40.754Z,48.00
2023-06-23T14:48:09.133Z,48.69
2023-06-23T14:50:37.122Z,48.35
2023-06-23T14:53:04.311Z,48.33
2023-06-23T14:55:34.596Z,48.11
2023-06-23T14:58:04.320Z,48.45
2023-06-23T15:00:32.033Z,48.38
2023-06-23T15:02:59.286Z,48.01
2023-06-23T15:05:26.709Z,48.23
2023-06-23T15:07:56.749Z,48.26
2023-06-23T15:10:23.862Z,48.38
2023-06-23T15:12:51.089Z,48.62
2023-06-23T15:15:18.316Z,48.59
2023-06-23T15:17:45.492Z,48.71
2023-06-23T15:20:13.030Z,47.92
2023-06-23T15:22:40.241Z,48.17
2023-06-23T15:25:10.438Z,48.83
2023-06-23T15:27:40.638Z,48.65
2023-06-23T15:30:13.712Z,49.01
2023-06-23T15:32:41.006Z,48.96
2023-06-23T15:35:08.924Z,49.21
2023-06-23T15:37:42.658Z,49.40
2023-06-23T15:40:12.267Z,49.33
2023-06-23T15:42:40.078Z,49.59
2023-06-23T15:45:10.901Z,49.10
2023-06-23T15:47:38.076Z,48.93
2023-06-23T15:50:05.795Z,49.15
2023-06-23T15:52:32.941Z,48.77
2023-06-23T15:55:00.136Z,48.48
2023-06-23T15:57:30.018Z,48.74
2023-06-23T15:59:57.995Z,48.33
2023-06-23T16:02:27.197Z,48.06
2023-06-23T16:04:54.460Z,48.73
2023-06-23T16:07:22.159Z,48.13
2023-06-23T16:09:49.448Z,48.11
2023-06-23T16:12:16.589Z,47.87
2023-06-23T16:14:43.872Z,48.19
2023-06-23T16:17:11.052Z,47.88
2023-06-23T16:19:38.278Z,47.61
2023-06-23T16:22:06.616Z,47.44
2023-06-23T16:24:34.047Z,47.54
2023-06-23T16:27:01.291Z,47.66
2023-06-23T16:29:28.559Z,47.23
2023-06-23T16:31:58.640Z,47.50
2023-06-23T16:34:26.060Z,47.00
2023-06-23T16:36:53.213Z,47.10
2023-06-23T16:39:22.237Z,47.68
2023-06-23T16:41:53.462Z,47.35
2023-06-23T16:44:20.718Z,47.54
2023-06-23T16:46:48.038Z,47.80
2023-06-23T16:49:15.229Z,47.33
2023-06-23T16:51:42.454Z,47.29
2023-06-23T16:54:09.846Z,47.19
2023-06-23T16:56:37.108Z,47.22
2023-06-23T16:59:10.843Z,46.79
2023-06-23T17:01:38.026Z,47.20
2023-06-23T17:04:05.383Z,47.13
2023-06-23T17:06:32.625Z,47.24
2023-06-23T17:09:00.768Z,46.86
2023-06-23T17:11:28.178Z,46.96
2023-06-23T17:13:55.321Z,46.92
2023-06-23T17:16:22.652Z,46.94
2023-06-23T17:18:49.791Z,47.21
2023-06-23T17:21:17.026Z,47.16
2023-06-23T17:23:44.276Z,47.05
2023-06-23T17:26:12.057Z,47.25
2023-06-23T17:28:42.360Z,47.38
2023-06-23T17:31:09.748Z,47.23
2023-06-23T17:33:36.915Z,47.39
2023-06-23T17:36:04.531Z,47.00
2023-06-23T17:38:31.624Z,46.90
2023-06-23T17:40:58.751Z,47.17
2023-06-23T17:43:25.877Z,47.24
2023-06-23T17:45:53.027Z,47.32
2023-06-23T17:48:21.985Z,47.60
2023-06-23T17:50:49.193Z,47.71
2023-06-23T17:53:16.388Z,47.52
2023-06-23T17:55:44.017Z,47.83
2023-06-23T17:58:11.391Z,47.59
2023-06-23T18:00:41.112Z,47.85
2023-06-23T18:03:08.374Z,48.01
2023-06-23T18:05:36.040Z,47.82
2023-06-23T18:08:03.693Z,48.06
2023-06-23T18:10:31.220Z,47.88
2023-06-23T18:12:58.554Z,48.07
2023-06-23T18:15:25.687Z,48.12
2023-06-23T18:17:52.966Z,48.28
2023-06-23T18:20:22.039Z,48.45
2023-06-23T18:22:49.508Z,48.64
2023-06-23T18:25:17.480Z,48.47
2023-06-23T18:27:44.616Z,48.62
2023-06-23T18:30:12.787Z,48.42
2023-06-23T18:32:40.390Z,48.60
2023-06-23T18:35:08.993Z,48.49
2023-06-23T18:37:36.294Z,48.69
2023-06-23T18:40:03.801Z,48.91
2023-06-23T18:42:32.412Z,48.70
2023-06-23T18:44:59.975Z,48.71
2023-06-23T18:47:28.110Z,49.01
2023-06-23T18:49:55.710Z,48.94
2023-06-23T18:52:23.115Z,48.81
2023-06-23T18:54:50.575Z,49.26
2023-06-23T18:57:17.755Z,48.89
2023-06-23T18:59:45.193Z,48.64
2023-06-23T19:02:12.323Z,48.62
2023-06-23T19:04:39.600Z,48.89
2023-06-23T19:07:07.572Z,49.17
2023-06-23T19:09:34.788Z,49.42
2023-06-23T19:12:02.001Z,49.61
2023-06-23T19:14:29.139Z,49.68
2023-06-23T19:16:56.749Z,49.80
2023-06-23T19:19:26.032Z,49.69
2023-06-23T19:21:53.423Z,49.88
2023-06-23T19:24:20.694Z,50.39
2023-06-23T19:26:47.887Z,50.29
2023-06-23T19:29:15.202Z,50.72
2023-06-23T19:31:42.405Z,50.15
2023-06-23T19:34:09.598Z,50.55
2023-06-23T19:36:36.776Z,51.13
2023-06-23T19:39:05.149Z,50.74
2023-06-23T19:41:32.389Z,51.29
2023-06-23T19:43:59.540Z,51.44
2023-06-23T19:46:26.779Z,51.53
2023-06-23T19:48:56.350Z,51.62
2023-06-23T19:51:23.558Z,51.57
2023-06-23T19:53:50.867Z,51.58
2023-06-23T19:56:18.283Z,52.11
2023-06-23T19:58:45.525Z,51.99
2023-06-23T20:01:12.709Z,51.94
2023-06-23T20:03:39.847Z,52.12
2023-06-23T20:06:07.028Z,52.26
2023-06-23T20:08:34.183Z,52.13
2023-06-23T20:11:01.331Z,52.27
2023-06-23T20:13:28.713Z,52.28
2023-06-23T20:15:55.932Z,52.48
2023-06-23T20:18:23.079Z,52.44
2023-06-23T20:20:50.439Z,52.40
2023-06-23T20:23:17.641Z,52.70
2023-06-23T20:25:44.900Z,53.09
2023-06-23T20:28:13.341Z,53.46
2023-06-23T20:30:40.505Z,53.58
2023-06-23T20:33:07.769Z,53.68
2023-06-23T20:35:34.964Z,53.42
2023-06-23T20:38:10.458Z,53.96
2023-06-23T20:40:37.873Z,53.82
2023-06-23T20:43:05.060Z,54.50
2023-06-23T20:45:32.319Z,54.18
2023-06-23T20:47:59.691Z,54.09
2023-06-23T20:50:26.955Z,54.03
2023-06-23T20:52:54.086Z,54.56
2023-06-23T20:55:21.226Z,54.92
2023-06-23T20:57:48.409Z,54.71
2023-06-23T21:00:16.118Z,55.11
2023-06-23T21:02:43.397Z,55.10
2023-06-23T21:05:11.047Z,55.00
2023-06-23T21:07:38.187Z,55.37
2023-06-23T21:10:12.753Z,55.99
2023-06-23T21:12:43.165Z,56.13
2023-06-23T21:15:10.311Z,56.81
2023-06-23T21:17:39.189Z,56.75
2023-06-23T21:20:08.040Z,57.21
2023-06-23T21:22:35.199Z,57.57
2023-06-23T21:25:02.744Z,58.22
2023-06-23T21:27:30.158Z,58.41
2023-06-23T21:29:58.039Z,58.50
2023-06-23T21:32:25.295Z,58.49
2023-06-23T21:34:52.597Z,59.14
2023-06-23T21:37:22.556Z,58.92
2023-06-23T21:39:49.726Z,59.66
2023-06-23T21:42:16.851Z,59.65
2023-06-23T21:44:47.174Z,59.91
2023-06-23T21:47:14.367Z,60.22
2023-06-23T21:49:44.619Z,60.27
2023-06-23T21:52:14.287Z,61.09
2023-06-23T21:54:41.548Z,61.30
2023-06-23T21:57:11.374Z,61.66
2023-06-23T21:59:39.157Z,62.10
2023-06-23T22:02:06.704Z,61.92
2023-06-23T22:04:33.954Z,62.65
2023-06-23T22:07:01.250Z,62.56
2023-06-23T22:09:28.500Z,62.42
2023-06-23T22:11:56.953Z,62.82
2023-06-23T22:14:26.647Z,63.12
2023-06-23T22:16:57.637Z,62.94
2023-06-23T22:19:24.965Z,63.29
2023-06-23T22:21:54.415Z,63.67
2023-06-23T22:24:24.266Z,63.21
2023-06-23T22:26:53.966Z,63.65
2023-06-23T22:29:21.105Z,63.42
2023-06-23T22:31:48.347Z,63.45
2023-06-23T22:34:15.494Z,63.70
2023-06-23T22:36:45.651Z,63.96
2023-06-23T22:39:12.964Z,63.67
2023-06-23T22:41:40.277Z,63.86
2023-06-23T22:44:07.791Z,63.98
2023-06-23T22:46:35.008Z,63.90
2023-06-23T22:49:08.293Z,63.84
2023-06-23T22:51:42.789Z,64.09
2023-06-23T22:54:14.045Z,63.99
2023-06-23T22:56:42.450Z,64.46
2023-06-23T22:59:09.884Z,63.98
2023-06-23T23:01:39.670Z,64.15
2023-06-23T23:04:07.277Z,64.26
2023-06-23T23:06:35.036Z,64.00
2023-06-23T23:09:02.319Z,64.21
2023-06-23T23:11:29.958Z,64.33
2023-06-23T23:13:57.112Z,64.12
2023-06-23T23:16:26.965Z,63.88
2023-06-23T23:18:54.850Z,63.74
2023-06-23T23:21:22.954Z,63.48
2023-06-23T23:23:53.863Z,63.87
2023-06-23T23:26:25.638Z,64.10
2023-06-23T23:28:52.786Z,63.66
2023-06-23T23:31:20.062Z,64.23
2023-06-23T23:33:47.576Z,63.74
2023-06-23T23:36:14.758Z,63.64
2023-06-23T23:38:41.898Z,64.03
2023-06-23T23:41:09.108Z,63.52
2023-06-23T23:43:36.235Z,63.48
2023-06-23T23:46:03.400Z,63.93
2023-06-23T23:48:30.583Z,63.90
2023-06-23T23:50:57.911Z,64.16
2023-06-23T23:53:25.102Z,63.94
2023-06-23T23:55:52.484Z,64.19
2023-06-23T23:58:19.866Z,64.08
